MMTC/TRC METAR and TAF weather

Enter ICAO airport designator
Station Type Date Time Source
MMTC METAR 2019/05/26 00:45 UTC NOAA

MMTC 260045Z 01006KT 8SM SCT030TCU SCT110 36/08 A2988 RMK 8/270


Station Type Date Time Source
MMTC Decoded METAR 2019/05/26 00:45 UTC NOAA

Torreon, Coah., Mexico (MMTC) 25-32N 103-27W 1150M
May 25, 2019 - 08:45 PM EDT / 2019.05.26 0045 UTC
Wind: from the N (010 degrees) at 7 MPH (6 KT):0
Visibility: 8 mile(s):0
Sky conditions: partly cloudy
Weather: Towering cumulus clouds observed
Temperature: 96 F (36 C)
Dew Point: 46 F (8 C)
Relative Humidity: 18%
Pressure (altimeter): 29.88 in. Hg (1011 hPa)
ob: MMTC 260045Z 01006KT 8SM SCT030TCU SCT110 36/08 A2988 RMK 8/270
cycle: 1

Station Type Date Time Source
MMTC TAF 2019/05/25 18:19 UTC NOAA

TAF MMTC 251713Z 2518/2618 04010KT P6SM SCT090
TEMPO 2523/2603 06010G20KT
FM260400 09012KT P6SM SCT090
BECMG 2608/2609 14010KT
FM261600 20010KT P6SM SCT120

Example: see airport list